Time;durP1;ratioP1;P1;durP2;ratioP2;P2;SDS_P1;SDS_P2;PMS_P1;PMS_P2;Temp;Humidity;BMP_temperature;BMP_pressure;BME280_temperature;BME280_humidity;BME280_pressure;Samples;Min_cycle;Max_cycle;Signal;HPM_P1;HPM_P2
2023/08/11 00:00:50;;;;;;;10.43;6.95;;;;;;;19.72;nan;101002.22;4979971;28;20107;-76
2023/08/11 00:03:16;;;;;;;9.60;6.05;;;;;;;19.71;nan;101003.16;4980980;28;20026;-77
2023/08/11 00:05:41;;;;;;;9.35;6.18;;;;;;;19.72;nan;101001.38;4975469;28;20113;-77
2023/08/11 00:08:17;;;;;;;8.70;5.95;;;;;;;19.71;nan;101003.16;4979036;28;20052;-77
2023/08/11 00:10:42;;;;;;;11.25;6.95;;;;;;;19.72;nan;100999.56;4979681;28;20030;-77
2023/08/11 00:13:12;;;;;;;9.05;5.93;;;;;;;19.71;nan;101003.16;4989134;28;20053;-77
2023/08/11 00:15:53;;;;;;;8.73;6.03;;;;;;;19.70;nan;100998.84;4987483;28;20069;-77
2023/08/11 00:18:19;;;;;;;7.15;5.30;;;;;;;19.72;nan;100999.56;4980393;28;20189;-77
2023/08/11 00:20:45;;;;;;;10.07;6.75;;;;;;;19.71;nan;101003.16;4980008;28;20798;-77
2023/08/11 00:23:10;;;;;;;11.02;6.30;;;;;;;19.71;nan;101011.06;4974910;28;20402;-77
2023/08/11 00:25:35;;;;;;;8.40;5.72;;;;;;;19.72;nan;101015.38;4976160;28;20033;-77
2023/08/11 00:28:01;;;;;;;9.38;6.20;;;;;;;19.72;nan;101011.91;4979954;28;20026;-76
2023/08/11 00:30:26;;;;;;;9.80;5.93;;;;;;;19.72;nan;101009.28;4978780;28;20030;-76
2023/08/11 00:32:52;;;;;;;9.77;6.55;;;;;;;19.70;nan;101012.00;4976835;28;20026;-77
2023/08/11 00:35:17;;;;;;;8.68;5.90;;;;;;;19.71;nan;101012.84;4974792;28;20026;-77
2023/08/11 00:37:42;;;;;;;9.00;6.05;;;;;;;19.71;nan;101018.97;4979199;28;20038;-77
2023/08/11 00:40:08;;;;;;;8.20;5.90;;;;;;;19.71;nan;101026.88;4979690;28;20034;-77
2023/08/11 00:42:34;;;;;;;9.68;6.30;;;;;;;19.72;nan;101032.97;4977388;28;20042;-76
2023/08/11 00:44:59;;;;;;;8.93;5.75;;;;;;;19.72;nan;101036.47;4974375;28;20041;-76
2023/08/11 00:47:26;;;;;;;7.82;6.00;;;;;;;19.71;nan;101037.41;4978433;28;20033;-77
2023/08/11 00:49:51;;;;;;;8.10;5.70;;;;;;;19.72;nan;101040.88;4961833;28;20038;-76
2023/08/11 00:52:17;;;;;;;8.75;5.85;;;;;;;19.71;nan;101028.66;4977181;28;20422;-76
2023/08/11 00:54:43;;;;;;;10.23;6.05;;;;;;;19.71;nan;101029.50;4994643;28;20088;-76
2023/08/11 00:57:08;;;;;;;9.32;5.70;;;;;;;19.70;nan;101030.44;4984606;28;20026;-76
2023/08/11 00:59:34;;;;;;;8.20;5.70;;;;;;;19.71;nan;101026.03;4983777;28;20490;-77
2023/08/11 01:01:59;;;;;;;9.50;6.35;;;;;;;19.72;nan;101030.34;4981569;28;20045;-76
2023/08/11 01:04:24;;;;;;;8.63;5.85;;;;;;;19.71;nan;101033.94;4977586;28;20405;-77
2023/08/11 01:07:06;;;;;;;8.70;5.60;;;;;;;19.71;nan;101037.41;4985360;28;20056;-77
2023/08/11 01:09:38;;;;;;;10.32;6.30;;;;;;;19.71;nan;101033.94;4985227;28;20828;-76
2023/08/11 01:12:09;;;;;;;8.48;5.57;;;;;;;19.71;nan;101029.50;4983163;28;20030;-76
2023/08/11 01:14:55;;;;;;;9.05;6.00;;;;;;;19.71;nan;101029.50;4980320;28;20081;-76
2023/08/11 01:17:21;;;;;;;7.18;5.05;;;;;;;19.70;nan;101030.44;4975216;28;20049;-78
2023/08/11 01:19:46;;;;;;;8.95;6.10;;;;;;;19.71;nan;101028.66;4983257;28;20049;-78
2023/08/11 01:22:18;;;;;;;8.98;5.82;;;;;;;19.71;nan;101023.38;4981435;28;20052;-77
2023/08/11 01:24:45;;;;;;;7.88;5.38;;;;;;;19.71;nan;101023.38;4977558;28;20088;-77
2023/08/11 01:27:11;;;;;;;8.63;6.00;;;;;;;19.71;nan;101021.59;4981457;28;20474;-77
2023/08/11 01:29:36;;;;;;;8.13;6.13;;;;;;;19.71;nan;101018.13;4982170;28;20026;-77
2023/08/11 01:32:02;;;;;;;8.00;5.78;;;;;;;19.71;nan;101024.22;4980475;28;20065;-76
2023/08/11 01:34:27;;;;;;;7.22;5.30;;;;;;;19.72;nan;101014.53;4976234;28;20038;-77
2023/08/11 01:37:00;;;;;;;8.50;5.68;;;;;;;19.71;nan;101021.59;4981666;28;20045;-77
2023/08/11 01:39:26;;;;;;;7.68;4.95;;;;;;;19.70;nan;101019.91;4982028;28;20034;-76
2023/08/11 01:41:52;;;;;;;7.95;5.45;;;;;;;19.70;nan;101022.53;4983365;28;20022;-78
2023/08/11 01:44:18;;;;;;;7.97;5.20;;;;;;;19.71;nan;101023.38;4977516;28;20053;-78
2023/08/11 01:46:44;;;;;;;7.90;5.50;;;;;;;19.71;nan;101021.59;4980678;28;20498;-76
2023/08/11 01:49:12;;;;;;;7.43;5.40;;;;;;;19.71;nan;101024.22;4983586;28;21023;-77
2023/08/11 01:51:38;;;;;;;7.38;5.55;;;;;;;19.71;nan;101026.88;4984959;28;20018;-77
2023/08/11 01:54:03;;;;;;;8.07;5.38;;;;;;;19.71;nan;101021.59;4997671;28;20503;-77
2023/08/11 01:56:29;;;;;;;7.50;5.47;;;;;;;19.71;nan;101018.13;4986502;28;20704;-77
2023/08/11 01:58:56;;;;;;;9.02;5.38;;;;;;;19.72;nan;101019.81;4981981;28;20193;-78
2023/08/11 02:01:21;;;;;;;6.97;5.13;;;;;;;19.71;nan;101015.50;4983694;28;20030;-77
2023/08/11 02:03:47;;;;;;;6.97;5.10;;;;;;;19.70;nan;101017.28;4998138;28;20036;-77
2023/08/11 02:06:13;;;;;;;8.73;6.25;;;;;;;19.69;nan;101010.31;4988324;28;20038;-76
2023/08/11 02:08:38;;;;;;;6.28;4.93;;;;;;;19.70;nan;101011.16;4983562;28;20042;-77
2023/08/11 02:11:03;;;;;;;7.65;5.70;;;;;;;19.70;nan;101012.00;4982967;28;20030;-77
2023/08/11 02:13:29;;;;;;;7.85;5.65;;;;;;;19.70;nan;101012.00;4977439;28;20057;-77
2023/08/11 02:15:54;;;;;;;7.22;5.25;;;;;;;19.70;nan;101017.28;4980732;28;20100;-77
2023/08/11 02:18:19;;;;;;;5.40;4.75;;;;;;;19.70;nan;101014.66;4982531;28;20831;-76
2023/08/11 02:20:45;;;;;;;7.88;5.40;;;;;;;19.70;nan;101012.00;4982429;28;20038;-77
2023/08/11 02:23:11;;;;;;;7.32;5.20;;;;;;;19.70;nan;101006.75;4978303;28;20145;-76
2023/08/11 02:25:37;;;;;;;7.53;5.13;;;;;;;19.71;nan;101007.59;4977031;28;20038;-77
2023/08/11 02:28:04;;;;;;;7.15;4.80;;;;;;;19.71;nan;101002.31;4965468;28;20038;-76
2023/08/11 02:30:29;;;;;;;7.50;5.28;;;;;;;19.69;nan;101005.06;4982490;28;20034;-77
2023/08/11 02:32:55;;;;;;;7.80;5.75;;;;;;;19.70;nan;101001.47;4981703;28;20492;-75
2023/08/11 02:35:21;;;;;;;6.68;4.88;;;;;;;19.70;nan;101005.91;4988977;28;20034;-77
2023/08/11 02:37:47;;;;;;;8.30;5.15;;;;;;;19.71;nan;101010.22;4981685;28;20034;-77
2023/08/11 02:40:14;;;;;;;7.75;5.30;;;;;;;19.70;nan;101012.00;4981532;28;20029;-78
2023/08/11 02:42:45;;;;;;;7.13;4.95;;;;;;;19.71;nan;101002.31;4987888;28;20064;-77
2023/08/11 02:45:11;;;;;;;7.43;5.30;;;;;;;19.70;nan;101000.63;4962315;28;20037;-77
2023/08/11 02:47:38;;;;;;;7.13;5.30;;;;;;;19.70;nan;100998.84;4983026;28;20037;-78
2023/08/11 02:50:04;;;;;;;6.97;5.15;;;;;;;19.70;nan;100998.00;4982987;28;20450;-77
2023/08/11 02:52:30;;;;;;;7.30;4.70;;;;;;;19.70;nan;100996.19;4980134;28;20122;-77
2023/08/11 02:54:55;;;;;;;7.28;5.43;;;;;;;19.70;nan;100998.84;4960868;28;20023;-77
2023/08/11 02:57:20;;;;;;;7.55;5.35;;;;;;;19.70;nan;100992.72;4982681;28;20039;-77
2023/08/11 02:59:48;;;;;;;5.80;4.57;;;;;;;19.70;nan;100988.28;4983630;28;20061;-77
2023/08/11 03:02:14;;;;;;;6.05;4.97;;;;;;;19.70;nan;100990.09;4981449;28;20030;-77
2023/08/11 03:04:49;;;;;;;6.15;4.88;;;;;;;19.70;nan;100995.34;4978656;28;20097;-77
2023/08/11 03:07:16;;;;;;;7.93;5.68;;;;;;;19.69;nan;100991.88;4982503;28;20041;-77
2023/08/11 03:09:42;;;;;;;7.07;5.03;;;;;;;19.71;nan;100997.03;4981531;28;20030;-76
2023/08/11 03:12:08;;;;;;;7.45;5.18;;;;;;;19.70;nan;100996.19;4986926;28;20026;-76
2023/08/11 03:14:37;;;;;;;7.13;4.85;;;;;;;19.71;nan;101000.53;4992524;28;20040;-78
2023/08/11 03:17:06;;;;;;;7.22;5.00;;;;;;;19.71;nan;100997.03;4979200;28;20046;-77
2023/08/11 03:19:32;;;;;;;6.32;4.68;;;;;;;19.70;nan;100996.19;4981528;28;20092;-76
2023/08/11 03:21:58;;;;;;;7.75;5.20;;;;;;;19.70;nan;100995.34;4983999;28;20053;-77
2023/08/11 03:24:24;;;;;;;6.13;4.70;;;;;;;19.70;nan;100990.09;4975838;28;20038;-77
2023/08/11 03:26:49;;;;;;;6.93;5.00;;;;;;;19.69;nan;100994.50;4978902;28;20030;-77
2023/08/11 03:29:14;;;;;;;4.88;4.35;;;;;;;19.70;nan;100995.34;4964130;28;20029;-76
2023/08/11 03:31:40;;;;;;;5.68;4.57;;;;;;;19.70;nan;100995.34;4979786;28;20038;-78
2023/08/11 03:34:05;;;;;;;7.13;5.07;;;;;;;19.69;nan;100996.31;4979298;28;20034;-77
2023/08/11 03:36:30;;;;;;;6.63;4.72;;;;;;;19.70;nan;101000.63;4986903;28;20038;-77
2023/08/11 03:38:56;;;;;;;6.85;5.00;;;;;;;19.69;nan;100999.78;4980931;28;20134;-77
2023/08/11 03:41:21;;;;;;;8.00;5.47;;;;;;;19.70;nan;101000.63;4981928;28;20038;-76
2023/08/11 03:43:47;;;;;;;5.63;4.82;;;;;;;19.70;nan;101012.00;4994916;28;20072;-77
2023/08/11 03:46:13;;;;;;;6.20;4.95;;;;;;;19.70;nan;101000.63;4983356;28;20095;-77
2023/08/11 03:52:00;;;;;;;4.95;4.40;;;;;;;19.69;nan;101007.69;4978226;28;20177;-78
2023/08/11 03:54:26;;;;;;;7.70;5.00;;;;;;;19.69;nan;100998.94;4973005;28;20034;-78
2023/08/11 03:56:51;;;;;;;7.30;5.07;;;;;;;19.68;nan;101008.59;4975340;28;20033;-78
2023/08/11 03:59:16;;;;;;;6.65;5.07;;;;;;;19.69;nan;101010.31;4980060;28;20038;-78
2023/08/11 04:01:42;;;;;;;5.82;4.28;;;;;;;19.69;nan;101015.59;4979573;28;20026;-78
2023/08/11 04:04:07;;;;;;;7.13;4.82;;;;;;;19.69;nan;101017.38;4972643;28;20052;-78
2023/08/11 04:06:32;;;;;;;5.70;4.60;;;;;;;19.70;nan;101016.44;4977131;28;20033;-78
2023/08/11 04:08:59;;;;;;;6.53;4.68;;;;;;;19.70;nan;101021.69;4981217;28;20084;-78
2023/08/11 04:11:25;;;;;;;7.68;4.85;;;;;;;19.69;nan;101018.22;4982026;28;20042;-77
2023/08/11 04:13:51;;;;;;;6.05;4.60;;;;;;;19.69;nan;101012.97;4978852;28;20478;-78
2023/08/11 04:16:16;;;;;;;6.10;4.55;;;;;;;19.69;nan;101020.00;4986025;28;20029;-78
2023/08/11 04:18:41;;;;;;;6.20;4.65;;;;;;;19.69;nan;101026.13;4981857;28;20490;-77
2023/08/11 04:21:07;;;;;;;7.07;4.78;;;;;;;19.69;nan;101028.75;4982136;28;20585;-76
2023/08/11 04:23:32;;;;;;;7.03;4.93;;;;;;;19.69;nan;101023.50;4977034;28;20109;-76
2023/08/11 04:25:58;;;;;;;6.30;4.90;;;;;;;19.68;nan;101019.13;4977566;28;20034;-76
2023/08/11 04:28:23;;;;;;;6.90;4.97;;;;;;;19.68;nan;101016.50;4982484;28;20729;-76
2023/08/11 04:30:49;;;;;;;5.95;5.07;;;;;;;19.68;nan;101024.41;4980934;28;20129;-77
2023/08/11 04:33:15;;;;;;;5.35;4.32;;;;;;;19.68;nan;101011.25;4977495;28;20049;-77
2023/08/11 04:35:40;;;;;;;6.43;4.32;;;;;;;19.68;nan;101019.13;4985522;28;20034;-77
2023/08/11 04:38:06;;;;;;;5.47;4.18;;;;;;;19.68;nan;101024.41;4979206;28;21287;-77
2023/08/11 04:40:31;;;;;;;6.03;4.60;;;;;;;19.69;nan;101026.13;4963276;28;20597;-77
2023/08/11 04:42:57;;;;;;;5.63;4.32;;;;;;;19.68;nan;101024.41;4989896;28;20108;-77
2023/08/11 04:45:22;;;;;;;6.22;4.55;;;;;;;19.69;nan;101023.50;4991420;28;20040;-76
2023/08/11 04:47:47;;;;;;;6.00;4.60;;;;;;;19.68;nan;101021.78;4981436;28;20034;-77
2023/08/11 04:50:13;;;;;;;5.97;4.60;;;;;;;19.69;nan;101022.66;4981680;28;20035;-76
2023/08/11 04:52:38;;;;;;;6.65;4.70;;;;;;;19.68;nan;101019.13;4979565;28;20119;-76
2023/08/11 04:55:05;;;;;;;6.72;4.65;;;;;;;19.68;nan;101032.31;4976749;28;20030;-76
2023/08/11 04:57:30;;;;;;;6.10;4.35;;;;;;;19.69;nan;101031.41;4978163;28;20030;-77
2023/08/11 04:59:55;;;;;;;6.15;4.65;;;;;;;19.68;nan;101031.47;4980478;28;20680;-77
2023/08/11 05:02:21;;;;;;;6.97;4.40;;;;;;;19.68;nan;101031.47;4981994;28;20152;-77
2023/08/11 05:04:46;;;;;;;6.28;4.63;;;;;;;19.68;nan;101034.94;4973978;28;20034;-76
2023/08/11 05:07:12;;;;;;;6.63;4.53;;;;;;;19.68;nan;101040.22;4977911;28;20449;-77
2023/08/11 05:09:38;;;;;;;5.90;4.53;;;;;;;19.69;nan;101041.09;4979457;28;20040;-77
2023/08/11 05:12:04;;;;;;;6.45;4.30;;;;;;;19.68;nan;101040.22;4983760;28;20457;-77
2023/08/11 05:14:29;;;;;;;7.18;4.78;;;;;;;19.68;nan;101045.47;4993008;28;20034;-77
2023/08/11 05:16:55;;;;;;;6.03;4.40;;;;;;;19.68;nan;101042.00;4981794;28;20100;-77
2023/08/11 05:19:20;;;;;;;6.72;4.85;;;;;;;19.68;nan;101045.47;4978292;28;20422;-77
2023/08/11 05:21:46;;;;;;;6.72;4.47;;;;;;;19.68;nan;101044.63;4980285;28;20053;-77
2023/08/11 05:24:11;;;;;;;6.00;4.22;;;;;;;19.68;nan;101045.47;4991610;28;20436;-78
2023/08/11 05:26:38;;;;;;;5.82;4.13;;;;;;;19.68;nan;101048.13;4984208;28;20175;-77
2023/08/11 05:29:03;;;;;;;5.20;4.22;;;;;;;19.69;nan;101054.25;4962063;28;20052;-77
2023/08/11 05:31:32;;;;;;;5.30;4.10;;;;;;;19.68;nan;101048.13;4979715;28;20037;-77
2023/08/11 05:33:57;;;;;;;5.23;4.23;;;;;;;19.67;nan;101049.06;4974599;28;20026;-76
2023/08/11 05:36:22;;;;;;;4.18;3.67;;;;;;;19.68;nan;101052.53;4977687;28;20808;-77
2023/08/11 05:38:48;;;;;;;5.05;4.15;;;;;;;19.68;nan;101057.81;4979562;28;20698;-77
2023/08/11 05:41:13;;;;;;;5.55;4.10;;;;;;;19.68;nan;101055.19;4982540;28;20041;-77
2023/08/11 05:43:38;;;;;;;5.82;4.10;;;;;;;19.68;nan;101056.03;4994708;28;20397;-79
2023/08/11 05:46:07;;;;;;;6.50;4.30;;;;;;;19.68;nan;101061.28;4985935;28;20054;-76
2023/08/11 05:48:33;;;;;;;5.32;4.50;;;;;;;19.68;nan;101061.28;4982248;28;20087;-78
2023/08/11 05:50:58;;;;;;;5.75;4.30;;;;;;;19.68;nan;101061.28;4982971;28;20116;-77
2023/08/11 05:53:24;;;;;;;4.47;3.95;;;;;;;19.68;nan;101057.81;4983044;28;20040;-77
2023/08/11 05:55:49;;;;;;;6.18;4.47;;;;;;;19.68;nan;101053.38;4992227;28;20030;-77
2023/08/11 05:58:15;;;;;;;7.00;4.53;;;;;;;19.68;nan;101060.44;4982891;28;20041;-77
2023/08/11 06:00:40;;;;;;;4.55;4.05;;;;;;;19.69;nan;101062.16;4981682;28;20036;-77
2023/08/11 06:03:05;;;;;;;5.78;4.57;;;;;;;19.68;nan;101061.28;4986904;28;20092;-77
2023/08/11 06:05:31;;;;;;;5.10;3.63;;;;;;;19.68;nan;101058.66;4994898;28;20026;-78
2023/08/11 06:07:56;;;;;;;5.25;3.88;;;;;;;19.69;nan;101062.16;4983897;28;20137;-78
2023/08/11 06:10:21;;;;;;;4.15;3.75;;;;;;;19.69;nan;101059.53;4982778;28;20037;-77
2023/08/11 06:12:47;;;;;;;5.38;4.13;;;;;;;19.68;nan;101057.81;4990373;28;20030;-77
2023/08/11 06:15:12;;;;;;;4.97;3.95;;;;;;;19.69;nan;101057.75;4992466;28;20325;-77
2023/08/11 06:17:38;;;;;;;4.45;3.65;;;;;;;19.68;nan;101056.03;4982188;28;20037;-77
2023/08/11 06:20:05;;;;;;;6.47;4.40;;;;;;;19.69;nan;101057.75;4982791;28;20022;-77
2023/08/11 06:22:31;;;;;;;6.00;4.40;;;;;;;19.68;nan;101056.03;4963445;28;20500;-77
2023/08/11 06:24:57;;;;;;;4.93;4.25;;;;;;;19.70;nan;101058.59;4996904;28;20532;-77
2023/08/11 06:27:22;;;;;;;5.07;3.95;;;;;;;19.69;nan;101059.53;4982049;28;20022;-77
2023/08/11 06:29:48;;;;;;;5.60;4.25;;;;;;;19.69;nan;101057.75;4980912;28;20030;-77
2023/08/11 06:32:13;;;;;;;5.10;4.00;;;;;;;19.69;nan;101055.09;4979818;28;20906;-78
2023/08/11 06:34:38;;;;;;;5.63;4.13;;;;;;;19.70;nan;101054.16;4974940;28;20477;-77
2023/08/11 06:37:04;;;;;;;6.43;4.20;;;;;;;19.70;nan;101054.16;4980731;28;20679;-77
2023/08/11 06:39:29;;;;;;;5.05;3.60;;;;;;;19.69;nan;101052.47;4982082;28;20493;-77
2023/08/11 06:41:54;;;;;;;5.20;4.18;;;;;;;19.70;nan;101046.25;4984489;28;20497;-77
2023/08/11 06:44:20;;;;;;;5.10;4.60;;;;;;;19.70;nan;101051.53;4975975;28;20534;-77
2023/08/11 06:46:45;;;;;;;5.55;4.30;;;;;;;19.71;nan;101055.00;4977963;28;20140;-77
2023/08/11 06:49:11;;;;;;;4.80;3.90;;;;;;;19.70;nan;101054.16;4979891;28;20030;-77
2023/08/11 06:51:36;;;;;;;5.50;4.10;;;;;;;19.71;nan;101060.28;4983087;28;20037;-78
2023/08/11 06:54:01;;;;;;;5.43;3.80;;;;;;;19.70;nan;101058.59;4984334;28;20561;-77
2023/08/11 06:56:27;;;;;;;5.43;4.43;;;;;;;19.71;nan;101063.75;4978849;28;20118;-76
2023/08/11 06:58:52;;;;;;;4.63;4.05;;;;;;;19.70;nan;101067.34;4981183;28;20025;-77
2023/08/11 07:01:18;;;;;;;5.90;4.32;;;;;;;19.71;nan;101063.75;4980701;28;20038;-77
2023/08/11 07:03:46;;;;;;;5.10;3.88;;;;;;;19.72;nan;101064.59;4976723;28;20046;-77
2023/08/11 07:06:12;;;;;;;4.32;3.45;;;;;;;19.72;nan;101075.13;4979825;28;20041;-77
2023/08/11 07:08:39;;;;;;;5.82;4.40;;;;;;;19.71;nan;101079.56;4979886;28;20041;-77
2023/08/11 07:11:04;;;;;;;4.43;4.03;;;;;;;19.71;nan;101082.19;4979836;28;20099;-77
2023/08/11 07:13:29;;;;;;;4.75;3.60;;;;;;;19.71;nan;101076.91;4977429;28;20655;-77
2023/08/11 07:15:56;;;;;;;4.13;3.67;;;;;;;19.71;nan;101084.81;4979007;28;20084;-77
2023/08/11 07:18:22;;;;;;;4.07;3.67;;;;;;;19.72;nan;101086.50;4979371;28;20030;-76
2023/08/11 07:20:47;;;;;;;4.18;3.67;;;;;;;19.72;nan;101089.16;4978858;28;20556;-77
2023/08/11 07:23:12;;;;;;;4.40;3.67;;;;;;;19.72;nan;101090.94;4988945;28;20917;-77
2023/08/11 07:25:38;;;;;;;4.35;3.53;;;;;;;19.72;nan;101089.16;4980400;28;20115;-77
2023/08/11 07:28:04;;;;;;;4.07;3.63;;;;;;;19.73;nan;101090.00;4963447;28;20030;-76
2023/08/11 07:30:30;;;;;;;5.22;3.70;;;;;;;19.73;nan;101093.47;4978259;28;20033;-75
2023/08/11 07:32:56;;;;;;;5.45;4.03;;;;;;;19.73;nan;101098.75;4976483;28;20066;-77
2023/08/11 07:35:22;;;;;;;5.82;4.18;;;;;;;19.73;nan;101092.63;4981928;28;20061;-76
2023/08/11 07:37:47;;;;;;;4.60;3.95;;;;;;;19.73;nan;101095.25;4980570;28;20425;-76
2023/08/11 07:40:12;;;;;;;4.70;4.05;;;;;;;19.73;nan;101093.47;4977934;28;20510;-76
2023/08/11 07:42:38;;;;;;;5.10;4.03;;;;;;;19.74;nan;101099.59;4985776;28;20034;-77
2023/08/11 07:45:04;;;;;;;4.22;3.72;;;;;;;19.73;nan;101095.25;4974854;28;20030;-76
2023/08/11 07:47:32;;;;;;;4.22;3.25;;;;;;;19.74;nan;101103.09;4978194;28;20026;-76
2023/08/11 07:49:59;;;;;;;;;;;;;;;19.74;nan;101095.19;4979465;28;20076;-76
2023/08/11 07:52:24;;;;;;;4.03;3.60;;;;;;;19.74;nan;101097.81;4977258;28;19918;-76
2023/08/11 07:54:49;;;;;;;4.72;3.88;;;;;;;19.74;nan;101097.81;4975838;28;20273;-75
2023/08/11 07:57:15;;;;;;;4.30;3.55;;;;;;;19.74;nan;101096.94;4978223;28;20682;-77
2023/08/11 07:59:40;;;;;;;5.18;4.07;;;;;;;19.75;nan;101099.50;4979222;28;20562;-76
2023/08/11 08:02:07;;;;;;;5.50;3.63;;;;;;;19.74;nan;101097.81;4981845;28;20375;-77
2023/08/11 08:04:33;;;;;;;4.10;3.60;;;;;;;19.75;nan;101101.31;4993503;28;20077;-76
2023/08/11 08:06:58;;;;;;;4.80;3.60;;;;;;;19.74;nan;101095.19;4980354;28;20632;-76
2023/08/11 08:09:23;;;;;;;4.20;3.65;;;;;;;19.75;nan;101096.03;4977569;28;20581;-77
2023/08/11 08:11:50;;;;;;;4.68;3.45;;;;;;;19.75;nan;101094.25;4982371;28;20530;-76
2023/08/11 08:14:15;;;;;;;4.30;3.67;;;;;;;19.75;nan;101099.50;4986645;28;20141;-76
2023/08/11 08:16:46;;;;;;;5.15;3.75;;;;;;;19.75;nan;101098.66;4980310;28;20423;-76
2023/08/11 08:19:14;;;;;;;3.78;3.28;;;;;;;19.75;nan;101094.25;4977721;28;20026;-78
2023/08/11 08:21:41;;;;;;;4.05;3.50;;;;;;;19.75;nan;101099.50;4980523;28;20595;-76
2023/08/11 08:24:07;;;;;;;4.47;3.72;;;;;;;19.75;nan;101099.50;4979529;28;20457;-75
2023/08/11 08:26:33;;;;;;;6.22;4.50;;;;;;;19.75;nan;101094.25;4978504;28;20148;-77
2023/08/11 08:29:11;;;;;;;4.97;3.72;;;;;;;19.75;nan;101094.25;4977974;28;20075;-76
2023/08/11 08:31:36;;;;;;;4.97;3.65;;;;;;;19.76;nan;101095.09;4979482;28;20510;-77
2023/08/11 08:34:01;;;;;;;4.65;3.70;;;;;;;19.76;nan;101095.94;4973662;28;20134;-76
2023/08/11 08:36:27;;;;;;;4.38;3.67;;;;;;;19.76;nan;101089.81;4975597;28;20022;-76
2023/08/11 08:38:52;;;;;;;4.15;3.58;;;;;;;19.76;nan;101090.66;4977927;28;20459;-75
2023/08/11 08:41:20;;;;;;;4.45;4.03;;;;;;;19.76;nan;101090.66;4978264;28;20032;-75
2023/08/11 08:43:46;;;;;;;3.75;3.35;;;;;;;19.77;nan;101092.34;4956254;28;20041;-75
2023/08/11 08:46:13;;;;;;;4.80;3.70;;;;;;;19.77;nan;101084.44;4975499;28;20095;-76
2023/08/11 08:48:45;;;;;;;4.47;3.50;;;;;;;19.77;nan;101092.34;4978725;28;20026;-76
2023/08/11 08:51:12;;;;;;;4.43;3.47;;;;;;;19.77;nan;101091.50;4978049;28;20037;-75
2023/08/11 08:53:37;;;;;;;4.50;3.72;;;;;;;19.77;nan;101081.81;4993463;28;20136;-76
2023/08/11 08:56:04;;;;;;;4.93;3.72;;;;;;;19.78;nan;101090.56;4978214;28;20034;-75
2023/08/11 08:58:31;;;;;;;4.65;3.47;;;;;;;19.78;nan;101087.94;4977578;28;20552;-76
2023/08/11 09:00:58;;;;;;;3.60;3.22;;;;;;;19.78;nan;101082.66;4978101;28;20401;-75
2023/08/11 09:03:23;;;;;;;4.25;3.53;;;;;;;19.78;nan;101086.13;4959559;28;20034;-77
2023/08/11 09:05:49;;;;;;;4.55;3.28;;;;;;;19.79;nan;101087.81;4973959;28;20038;-76
2023/08/11 09:08:43;;;;;;;4.03;3.55;;;;;;;19.79;nan;101085.19;4979569;28;20022;-76
2023/08/11 09:11:08;;;;;;;3.75;3.20;;;;;;;19.79;nan;101085.19;4982189;28;20659;-76
2023/08/11 09:13:34;;;;;;;4.68;3.30;;;;;;;19.78;nan;101083.50;4994826;28;20057;-76
2023/08/11 09:15:59;;;;;;;4.43;3.42;;;;;;;19.79;nan;101085.19;4984990;28;20022;-76
2023/08/11 09:18:25;;;;;;;4.57;3.58;;;;;;;19.79;nan;101077.28;4984215;28;21454;-76
2023/08/11 09:20:50;;;;;;;4.50;3.22;;;;;;;19.80;nan;101083.44;4982086;28;20685;-76
2023/08/11 09:23:17;;;;;;;4.80;3.70;;;;;;;19.80;nan;101084.28;4992497;28;20385;-76
2023/08/11 09:25:42;;;;;;;4.43;3.60;;;;;;;19.81;nan;101085.13;4986145;28;20118;-77
2023/08/11 09:28:08;;;;;;;4.22;3.42;;;;;;;19.80;nan;101072.88;4981594;28;20116;-76
2023/08/11 09:30:34;;;;;;;4.85;3.58;;;;;;;19.80;nan;101071.09;4983764;28;20029;-76
2023/08/11 09:33:00;;;;;;;4.47;3.50;;;;;;;19.81;nan;101070.16;4991536;28;20048;-76
2023/08/11 09:35:26;;;;;;;4.82;3.58;;;;;;;19.82;nan;101076.28;4987695;28;20148;-76
2023/08/11 09:37:53;;;;;;;4.45;3.50;;;;;;;19.81;nan;101064.88;4984795;28;20034;-77
2023/08/11 09:40:18;;;;;;;4.60;3.78;;;;;;;19.82;nan;101069.22;4984833;28;20896;-76
2023/08/11 09:42:44;;;;;;;4.07;3.28;;;;;;;19.81;nan;101064.88;4980794;28;20034;-76
2023/08/11 09:45:10;;;;;;;5.05;3.72;;;;;;;19.80;nan;101065.84;4966421;28;20034;-76
2023/08/11 09:47:35;;;;;;;3.90;3.20;;;;;;;19.81;nan;101061.41;4983819;28;20037;-76
2023/08/11 09:50:01;;;;;;;4.38;3.45;;;;;;;19.81;nan;101066.69;4983797;28;20450;-75
2023/08/11 09:52:27;;;;;;;4.43;3.65;;;;;;;19.82;nan;101063.09;4987418;28;20059;-77
2023/08/11 09:54:55;;;;;;;4.20;3.40;;;;;;;19.82;nan;101069.22;4977867;28;20034;-76
2023/08/11 09:57:21;;;;;;;4.47;3.63;;;;;;;19.83;nan;101075.31;4982003;28;20041;-77
2023/08/11 09:59:47;;;;;;;5.50;3.42;;;;;;;19.82;nan;101069.22;4984716;28;20030;-76
2023/08/11 10:02:46;;;;;;;4.50;3.50;;;;;;;19.83;nan;101067.41;4986023;28;20037;-75
2023/08/11 10:05:42;;;;;;;3.63;3.30;;;;;;;19.82;nan;101065.72;4996294;28;20088;-77
2023/08/11 10:08:21;;;;;;;3.22;2.92;;;;;;;19.83;nan;101067.41;4982041;28;20037;-77
2023/08/11 10:10:46;;;;;;;4.65;2.92;;;;;;;19.83;nan;101062.16;4981739;28;20838;-76
2023/08/11 10:13:15;;;;;;;3.88;3.22;;;;;;;19.82;nan;101058.66;4991328;28;20029;-75
2023/08/11 10:15:40;;;;;;;5.20;3.85;;;;;;;19.83;nan;101062.16;4985459;28;20136;-77
2023/08/11 10:18:06;;;;;;;4.00;3.25;;;;;;;19.83;nan;101059.50;4981127;28;20049;-77
2023/08/11 10:20:32;;;;;;;4.07;2.97;;;;;;;19.84;nan;101062.03;4980862;28;20720;-76
2023/08/11 10:22:57;;;;;;;3.63;3.15;;;;;;;19.83;nan;101055.09;4978047;28;20090;-76
2023/08/11 10:25:24;;;;;;;4.88;3.20;;;;;;;19.83;nan;101059.50;4983396;28;20079;-77
2023/08/11 10:27:49;;;;;;;3.80;3.22;;;;;;;19.83;nan;101060.34;4980044;28;20056;-76
2023/08/11 10:30:15;;;;;;;4.25;3.35;;;;;;;19.84;nan;101062.03;4980775;28;20721;-76
2023/08/11 10:32:41;;;;;;;4.18;3.15;;;;;;;19.84;nan;101061.19;4977273;28;20042;-76
2023/08/11 10:35:07;;;;;;;4.57;3.30;;;;;;;19.84;nan;101051.50;4976707;28;20090;-76
2023/08/11 10:37:33;;;;;;;3.70;3.22;;;;;;;19.84;nan;101053.28;4963756;28;20866;-75
2023/08/11 10:40:04;;;;;;;4.07;3.22;;;;;;;19.84;nan;101051.50;4980954;28;20030;-77
2023/08/11 10:42:30;;;;;;;3.90;3.30;;;;;;;19.84;nan;101051.50;4988037;28;20029;-77
2023/08/11 10:45:09;;;;;;;3.28;3.00;;;;;;;19.86;nan;101048.78;4995576;28;20022;-75
2023/08/11 10:47:41;;;;;;;3.53;3.22;;;;;;;19.86;nan;101048.78;4981273;28;20022;-76
2023/08/11 10:50:08;;;;;;;3.78;3.00;;;;;;;19.84;nan;101035.69;4981051;28;20108;-76
2023/08/11 10:52:42;;;;;;;3.67;3.25;;;;;;;19.85;nan;101040.03;4980411;28;20049;-76
2023/08/11 10:55:09;;;;;;;3.58;3.10;;;;;;;19.87;nan;101036.47;4977193;28;20034;-76
2023/08/11 10:57:35;;;;;;;3.58;3.17;;;;;;;19.86;nan;101027.72;4981378;28;20060;-75
2023/08/11 11:00:50;;;;;;;3.85;3.20;;;;;;;19.87;nan;101028.56;4980310;28;20038;-76
2023/08/11 11:03:15;;;;;;;3.28;3.00;;;;;;;19.86;nan;101022.44;4991530;28;20445;-76
2023/08/11 11:05:44;;;;;;;4.28;3.00;;;;;;;19.87;nan;101025.94;4989861;28;20079;-76
2023/08/11 11:08:10;;;;;;;3.53;3.22;;;;;;;19.87;nan;101015.38;4981138;28;20470;-77
2023/08/11 11:10:35;;;;;;;4.40;3.30;;;;;;;19.87;nan;101012.75;4981362;28;20045;-76
2023/08/11 11:13:02;;;;;;;3.45;3.10;;;;;;;19.87;nan;101002.22;4985468;28;20053;-77
2023/08/11 11:15:32;;;;;;;3.08;2.78;;;;;;;19.87;nan;101005.69;4991836;28;20038;-76
2023/08/11 11:17:58;;;;;;;3.38;2.90;;;;;;;19.88;nan;101014.44;4978909;28;20117;-76
2023/08/11 11:20:23;;;;;;;3.80;3.13;;;;;;;19.88;nan;100998.63;4980688;28;20445;-75
2023/08/11 11:22:49;;;;;;;3.70;3.00;;;;;;;19.88;nan;101004.75;4983749;28;20050;-76
2023/08/11 11:25:16;;;;;;;3.70;2.95;;;;;;;19.88;nan;101006.53;4983474;28;20121;-75
2023/08/11 11:27:42;;;;;;;4.10;3.17;;;;;;;19.89;nan;101006.44;4980474;28;20141;-76
2023/08/11 11:30:09;;;;;;;3.35;3.05;;;;;;;19.88;nan;101002.09;4979757;28;21231;-75
2023/08/11 11:32:34;;;;;;;3.55;3.15;;;;;;;19.88;nan;100999.47;4987239;28;20050;-77
2023/08/11 11:34:59;;;;;;;3.95;3.17;;;;;;;19.88;nan;101002.09;4995462;28;20164;-76
2023/08/11 11:37:25;;;;;;;3.00;2.70;;;;;;;19.89;nan;100997.69;4962143;28;20066;-76
2023/08/11 11:39:53;;;;;;;2.88;2.60;;;;;;;19.90;nan;100996.72;4979956;28;20480;-77
2023/08/11 11:42:18;;;;;;;3.10;2.80;;;;;;;19.89;nan;101001.16;4985449;28;20025;-77